createdAt,value
2019-03-06T00:01:18.149Z,20.52
2019-03-06T00:06:18.083Z,19.37
2019-03-06T00:08:51.907Z,19.00
2019-03-06T00:11:22.602Z,19.70
2019-03-06T00:14:10.687Z,19.90
2019-03-06T00:16:41.361Z,22.27
2019-03-06T00:19:12.240Z,22.80
2019-03-06T00:21:42.847Z,25.65
2019-03-06T00:24:13.200Z,28.60
2019-03-06T00:26:43.486Z,29.55
2019-03-06T00:29:13.791Z,29.87
2019-03-06T00:31:44.024Z,28.67
2019-03-06T00:34:14.313Z,30.45
2019-03-06T00:36:44.643Z,28.77
2019-03-06T00:39:14.945Z,29.12
2019-03-06T00:41:45.578Z,29.05
2019-03-06T00:44:16.011Z,30.45
2019-03-06T00:46:46.250Z,29.18
2019-03-06T00:49:16.537Z,26.55
2019-03-06T00:51:46.989Z,28.55
2019-03-06T00:54:17.286Z,27.10
2019-03-06T00:56:47.451Z,27.82
2019-03-06T00:59:17.713Z,27.67
2019-03-06T01:01:47.870Z,27.55
2019-03-06T01:04:18.506Z,27.73
2019-03-06T01:06:48.857Z,28.32
2019-03-06T01:09:19.073Z,30.12
2019-03-06T01:11:49.240Z,34.33
2019-03-06T01:14:19.472Z,34.13
2019-03-06T01:16:49.631Z,31.02
2019-03-06T01:19:19.882Z,30.75
2019-03-06T01:21:50.046Z,28.65
2019-03-06T01:24:20.273Z,32.55
2019-03-06T01:26:50.726Z,33.23
2019-03-06T01:29:20.962Z,33.23
2019-03-06T01:31:51.140Z,31.25
2019-03-06T01:34:22.962Z,28.35
2019-03-06T01:36:57.400Z,28.05
2019-03-06T01:39:35.380Z,28.65
2019-03-06T01:42:07.113Z,31.57
2019-03-06T01:44:38.912Z,30.60
2019-03-06T01:49:38.648Z,30.25
2019-03-06T01:52:08.820Z,31.27
2019-03-06T01:54:39.158Z,31.02
2019-03-06T01:57:09.311Z,29.05
2019-03-06T01:59:39.615Z,30.68
2019-03-06T02:02:09.891Z,28.42
2019-03-06T02:04:40.142Z,28.92
2019-03-06T02:07:10.610Z,28.98
2019-03-06T02:09:41.145Z,28.15
2019-03-06T02:12:11.541Z,28.90
2019-03-06T02:14:41.768Z,29.02
2019-03-06T02:17:13.038Z,28.98
2019-03-06T02:19:44.572Z,30.20
2019-03-06T02:22:14.734Z,29.00
2019-03-06T02:24:44.969Z,29.45
2019-03-06T02:27:15.261Z,28.10
2019-03-06T02:29:45.477Z,27.75
2019-03-06T02:32:15.843Z,27.35
2019-03-06T02:34:46.082Z,27.13
2019-03-06T02:37:16.264Z,26.40
2019-03-06T02:39:46.509Z,26.57
2019-03-06T02:42:16.669Z,25.48
2019-03-06T02:44:47.314Z,24.12
2019-03-06T02:47:17.492Z,27.70
2019-03-06T02:49:47.919Z,25.80
2019-03-06T02:52:18.083Z,26.70
2019-03-06T02:54:48.325Z,26.80
2019-03-06T02:57:18.465Z,24.75
2019-03-06T02:59:50.276Z,25.35
2019-03-06T03:02:22.014Z,26.40
2019-03-06T03:04:56.896Z,26.12
2019-03-06T03:07:27.058Z,25.20
2019-03-06T03:09:57.292Z,25.32
2019-03-06T03:12:27.612Z,26.05
2019-03-06T03:14:57.971Z,25.68
2019-03-06T03:17:28.192Z,26.60
2019-03-06T03:19:58.399Z,26.05
2019-03-06T03:22:28.562Z,27.20
2019-03-06T03:24:58.842Z,27.27
2019-03-06T03:27:29.038Z,26.17
2019-03-06T03:29:59.550Z,26.17
2019-03-06T03:32:30.722Z,19.62
2019-03-06T03:35:00.942Z,25.40
2019-03-06T03:37:31.119Z,25.37
2019-03-06T03:40:01.363Z,26.68
2019-03-06T03:42:31.912Z,26.50
2019-03-06T03:45:02.161Z,25.20
2019-03-06T03:47:33.685Z,27.75
2019-03-06T03:50:04.801Z,24.27
2019-03-06T03:52:35.031Z,26.87
2019-03-06T03:55:10.832Z,25.70
2019-03-06T03:57:41.049Z,26.93
2019-03-06T04:00:14.348Z,25.02
2019-03-06T04:02:44.561Z,24.82
2019-03-06T04:05:14.814Z,26.55
2019-03-06T04:07:45.019Z,24.12
2019-03-06T04:10:15.945Z,24.57
2019-03-06T04:12:46.174Z,26.00
2019-03-06T04:15:17.775Z,25.30
2019-03-06T04:17:47.998Z,25.23
2019-03-06T04:20:18.356Z,27.05
2019-03-06T04:22:48.573Z,25.72
2019-03-06T04:25:18.809Z,25.75
2019-03-06T04:27:49.076Z,22.80
2019-03-06T04:30:20.416Z,24.15
2019-03-06T04:32:50.618Z,24.32
2019-03-06T04:35:22.052Z,25.52
2019-03-06T04:37:52.254Z,43.15
2019-03-06T04:40:22.488Z,49.55
2019-03-06T04:42:52.720Z,47.48
2019-03-06T04:45:23.139Z,50.45
2019-03-06T04:47:53.378Z,48.30
2019-03-06T04:50:23.588Z,54.30
2019-03-06T04:52:53.763Z,61.48
2019-03-06T04:55:23.987Z,60.52
2019-03-06T04:57:54.242Z,63.85
2019-03-06T05:00:24.868Z,64.58
2019-03-06T05:02:55.701Z,63.23
2019-03-06T05:05:25.927Z,67.70
2019-03-06T05:07:56.101Z,73.02
2019-03-06T05:10:27.640Z,73.47
2019-03-06T05:12:57.817Z,73.52
2019-03-06T05:15:28.047Z,70.22
2019-03-06T05:18:16.548Z,68.83
2019-03-06T05:20:46.789Z,74.45
2019-03-06T05:23:17.438Z,77.20
2019-03-06T05:25:47.828Z,72.22
2019-03-06T05:28:18.060Z,73.70
2019-03-06T05:30:48.297Z,73.60
2019-03-06T05:33:18.552Z,73.52
2019-03-06T05:35:57.890Z,69.62
2019-03-06T05:38:40.363Z,72.95
2019-03-06T05:41:10.607Z,75.95
2019-03-06T05:43:40.861Z,75.80
2019-03-06T05:46:11.067Z,78.95
2019-03-06T05:48:41.320Z,73.57
2019-03-06T05:51:11.556Z,64.65
2019-03-06T05:53:41.865Z,81.12
2019-03-06T05:56:12.369Z,73.20
2019-03-06T05:58:43.614Z,74.47
2019-03-06T06:01:13.829Z,75.72
2019-03-06T06:03:44.051Z,81.97
2019-03-06T06:06:14.273Z,79.82
2019-03-06T06:08:44.496Z,77.45
2019-03-06T06:11:14.742Z,78.65
2019-03-06T06:13:44.971Z,83.07
2019-03-06T06:16:15.395Z,78.52
2019-03-06T06:18:45.900Z,76.95
2019-03-06T06:21:20.709Z,76.20
2019-03-06T06:23:54.105Z,71.85
2019-03-06T06:26:24.549Z,75.32
2019-03-06T06:28:54.778Z,74.70
2019-03-06T06:31:25.001Z,78.40
2019-03-06T06:33:55.240Z,75.03
2019-03-06T06:36:25.825Z,78.60
2019-03-06T06:38:56.089Z,91.12
2019-03-06T06:41:26.337Z,91.78
2019-03-06T06:43:56.572Z,99.37
2019-03-06T06:46:26.803Z,107.15
2019-03-06T06:48:57.530Z,84.05
2019-03-06T06:51:36.835Z,79.12
2019-03-06T06:54:13.007Z,70.83
2019-03-06T06:57:07.208Z,72.87
2019-03-06T06:59:46.376Z,71.10
2019-03-06T07:02:50.245Z,68.57
2019-03-06T07:05:34.288Z,67.35
2019-03-06T07:08:06.497Z,66.53
2019-03-06T07:10:47.245Z,64.60
2019-03-06T07:13:19.038Z,64.50
2019-03-06T07:16:08.795Z,65.32
2019-03-06T07:18:40.602Z,64.17
2019-03-06T07:21:12.588Z,67.05
2019-03-06T07:23:50.424Z,62.55
2019-03-06T07:26:22.269Z,67.27
2019-03-06T07:28:54.028Z,63.87
2019-03-06T07:31:25.816Z,63.30
2019-03-06T07:34:03.701Z,61.45
2019-03-06T07:36:53.534Z,60.67
2019-03-06T07:39:25.287Z,61.28
2019-03-06T07:41:57.089Z,60.23
2019-03-06T07:44:45.333Z,62.78
2019-03-06T07:47:23.012Z,64.15
2019-03-06T07:49:57.572Z,66.15
2019-03-06T07:52:38.541Z,60.92
2019-03-06T07:55:26.897Z,66.37
2019-03-06T07:58:35.229Z,61.68
2019-03-06T08:01:05.553Z,62.80
2019-03-06T08:03:35.779Z,62.53
2019-03-06T08:06:05.958Z,60.25
2019-03-06T08:08:37.387Z,64.47
2019-03-06T08:11:08.461Z,62.85
2019-03-06T08:13:40.439Z,61.70
2019-03-06T08:16:12.200Z,59.35
2019-03-06T08:18:52.859Z,58.60
2019-03-06T08:21:27.458Z,61.28
2019-03-06T08:23:59.273Z,60.43
2019-03-06T08:26:29.450Z,60.48
2019-03-06T08:28:59.674Z,60.48
2019-03-06T08:31:31.410Z,57.80
2019-03-06T08:34:01.896Z,58.80
2019-03-06T08:36:32.069Z,60.23
2019-03-06T08:39:02.313Z,58.58
2019-03-06T08:41:34.010Z,57.80
2019-03-06T08:44:04.231Z,60.78
2019-03-06T08:46:35.999Z,58.30
2019-03-06T08:49:07.822Z,57.55
2019-03-06T08:51:55.998Z,60.12
2019-03-06T08:54:27.814Z,58.30
2019-03-06T08:57:05.338Z,59.93
2019-03-06T08:59:43.127Z,62.33
2019-03-06T09:02:23.917Z,62.08
2019-03-06T09:04:58.419Z,65.22
2019-03-06T09:07:40.506Z,61.40
2019-03-06T09:10:12.448Z,62.93
2019-03-06T09:13:02.464Z,62.62
2019-03-06T09:15:40.053Z,64.67
2019-03-06T09:18:21.050Z,58.68
2019-03-06T09:20:58.815Z,67.08
2019-03-06T09:23:47.190Z,65.65
2019-03-06T09:26:19.014Z,65.57
2019-03-06T09:29:07.068Z,65.17
2019-03-06T09:31:50.400Z,65.60
2019-03-06T09:34:22.157Z,66.02
2019-03-06T09:37:07.481Z,65.03
2019-03-06T09:39:55.701Z,66.82
2019-03-06T09:42:39.668Z,66.33
2019-03-06T09:45:15.006Z,63.95
2019-03-06T09:47:47.219Z,59.67
2019-03-06T09:50:27.936Z,64.85
2019-03-06T09:53:02.465Z,64.85
2019-03-06T09:55:34.297Z,65.25
2019-03-06T09:58:06.132Z,63.42
2019-03-06T10:00:43.889Z,64.10
2019-03-06T10:03:27.638Z,63.63
2019-03-06T10:06:02.400Z,62.90
2019-03-06T10:08:38.094Z,63.58
2019-03-06T10:11:10.077Z,64.00
2019-03-06T10:13:42.147Z,63.17
2019-03-06T10:16:14.254Z,61.55
2019-03-06T10:18:57.908Z,62.45
2019-03-06T10:21:28.078Z,63.42
2019-03-06T10:23:58.332Z,63.28
2019-03-06T10:26:28.967Z,61.68
2019-03-06T10:28:59.512Z,63.30
2019-03-06T10:31:29.743Z,61.85
2019-03-06T10:34:00.102Z,60.23
2019-03-06T10:36:31.066Z,62.05
2019-03-06T10:39:01.298Z,61.13
2019-03-06T10:41:33.058Z,61.83
2019-03-06T10:44:05.238Z,59.63
2019-03-06T10:46:37.608Z,60.40
2019-03-06T10:49:07.843Z,59.85
2019-03-06T10:51:38.464Z,60.17
2019-03-06T10:54:08.698Z,59.60
2019-03-06T10:56:38.927Z,56.90
2019-03-06T10:59:09.259Z,56.53
2019-03-06T11:01:40.579Z,56.63
2019-03-06T11:04:30.739Z,59.63
2019-03-06T11:07:00.974Z,57.73
2019-03-06T11:09:31.681Z,51.28
2019-03-06T11:12:01.846Z,55.90
2019-03-06T11:14:32.384Z,57.88
2019-03-06T11:17:02.627Z,52.67
2019-03-06T11:19:33.151Z,56.40
2019-03-06T11:22:03.385Z,53.48
2019-03-06T11:24:33.625Z,48.23
2019-03-06T11:27:03.849Z,49.60
2019-03-06T11:29:34.065Z,45.28
2019-03-06T11:32:04.624Z,48.05
2019-03-06T11:34:34.871Z,46.02
2019-03-06T11:37:05.293Z,46.37
2019-03-06T11:39:35.589Z,45.50
2019-03-06T11:42:05.828Z,42.70
2019-03-06T11:44:36.055Z,41.23
2019-03-06T11:47:06.293Z,39.80
2019-03-06T11:49:36.832Z,40.58
2019-03-06T11:52:08.350Z,39.38
2019-03-06T11:54:38.575Z,38.10
2019-03-06T11:57:08.804Z,40.17
2019-03-06T11:59:39.286Z,42.95
2019-03-06T12:02:10.917Z,34.10
2019-03-06T12:04:41.535Z,32.95
2019-03-06T12:07:11.763Z,34.05
2019-03-06T12:09:42.001Z,35.63
2019-03-06T12:12:12.210Z,32.05
2019-03-06T12:14:42.427Z,31.65
2019-03-06T12:17:12.610Z,29.32
2019-03-06T12:19:42.833Z,26.97
2019-03-06T12:22:13.004Z,28.20
2019-03-06T12:24:43.234Z,30.25
2019-03-06T12:27:13.399Z,31.10
2019-03-06T12:29:43.645Z,29.65
2019-03-06T12:32:14.210Z,29.60
2019-03-06T12:34:44.435Z,29.35
2019-03-06T12:37:14.596Z,30.70
2019-03-06T12:39:44.825Z,30.00
2019-03-06T12:42:15.128Z,31.75
2019-03-06T12:44:45.735Z,32.95
2019-03-06T12:47:16.140Z,28.25
2019-03-06T12:49:46.395Z,30.40
2019-03-06T12:52:16.569Z,29.92
2019-03-06T12:54:46.901Z,28.32
2019-03-06T12:57:17.177Z,28.62
2019-03-06T12:59:47.416Z,29.60
2019-03-06T13:02:17.585Z,25.05
2019-03-06T13:04:47.830Z,26.55
2019-03-06T13:07:18.182Z,23.95
2019-03-06T13:09:48.844Z,26.60
2019-03-06T13:12:19.005Z,26.45
2019-03-06T13:14:49.359Z,25.85
2019-03-06T13:17:19.621Z,24.27
2019-03-06T13:19:50.070Z,25.17
2019-03-06T13:22:20.243Z,26.23
2019-03-06T13:24:51.477Z,25.72
2019-03-06T13:27:21.716Z,25.08
2019-03-06T13:29:51.952Z,24.32
2019-03-06T13:32:23.910Z,23.32
2019-03-06T13:34:54.260Z,24.85
2019-03-06T13:37:24.431Z,25.85
2019-03-06T13:39:54.608Z,24.52
2019-03-06T13:42:26.608Z,24.15
2019-03-06T13:44:56.645Z,24.35
2019-03-06T13:47:26.847Z,24.30
2019-03-06T13:49:57.376Z,41.23
2019-03-06T13:52:27.551Z,24.12
2019-03-06T13:54:57.952Z,23.30
2019-03-06T13:57:28.240Z,23.32
2019-03-06T13:59:58.402Z,24.02
2019-03-06T14:02:28.600Z,23.40
2019-03-06T14:04:58.952Z,24.65
2019-03-06T14:07:29.137Z,24.60
2019-03-06T14:09:59.316Z,24.12
2019-03-06T14:12:29.534Z,21.55
2019-03-06T14:14:59.708Z,23.52
2019-03-06T14:17:29.980Z,22.42
2019-03-06T14:20:00.319Z,21.85
2019-03-06T14:22:30.493Z,24.35
2019-03-06T14:25:00.660Z,21.35
2019-03-06T14:27:31.308Z,22.22
2019-03-06T14:30:01.728Z,23.67
2019-03-06T14:32:33.351Z,19.92
2019-03-06T14:35:03.618Z,19.42
2019-03-06T14:37:33.857Z,19.42
2019-03-06T14:40:09.781Z,19.17
2019-03-06T14:42:38.343Z,17.85
2019-03-06T14:45:11.771Z,16.75
2019-03-06T14:47:42.006Z,17.55
2019-03-06T14:50:12.215Z,19.77
2019-03-06T14:52:42.437Z,19.65
2019-03-06T14:55:13.342Z,20.10
2019-03-06T14:57:43.567Z,20.45
2019-03-06T15:00:18.270Z,19.25
2019-03-06T15:02:48.597Z,20.00
2019-03-06T15:05:19.668Z,20.55
2019-03-06T15:07:49.933Z,19.82
2019-03-06T15:10:20.491Z,20.27
2019-03-06T15:12:50.735Z,21.15
2019-03-06T15:15:21.201Z,21.82
2019-03-06T15:17:51.483Z,21.17
2019-03-06T15:20:24.350Z,20.12
2019-03-06T15:22:55.670Z,21.00
2019-03-06T15:25:27.895Z,22.50
2019-03-06T15:27:59.236Z,22.67
2019-03-06T15:30:29.481Z,22.15
2019-03-06T15:32:59.719Z,22.13
2019-03-06T15:35:29.974Z,21.42
2019-03-06T15:38:00.349Z,23.95
2019-03-06T15:40:34.107Z,21.62
2019-03-06T15:43:05.978Z,21.82
2019-03-06T15:45:36.378Z,21.65
2019-03-06T15:48:07.034Z,19.85
2019-03-06T15:50:37.237Z,18.95
2019-03-06T15:53:07.504Z,19.95
2019-03-06T15:55:37.739Z,19.35
2019-03-06T15:58:07.955Z,19.82
2019-03-06T16:00:46.337Z,19.32
2019-03-06T16:03:13.695Z,18.98
2019-03-06T16:05:44.363Z,18.40
2019-03-06T16:08:14.567Z,18.57
2019-03-06T16:10:45.607Z,22.07
2019-03-06T16:13:15.817Z,19.80
2019-03-06T16:15:46.044Z,20.37
2019-03-06T16:18:16.282Z,19.77
2019-03-06T16:20:47.083Z,19.92
2019-03-06T16:23:17.362Z,19.15
2019-03-06T16:25:47.625Z,19.65
2019-03-06T16:28:17.874Z,19.27
2019-03-06T16:30:48.457Z,19.85
2019-03-06T16:33:21.059Z,20.40
2019-03-06T16:35:50.747Z,18.90
2019-03-06T16:38:21.018Z,18.98
2019-03-06T16:40:51.485Z,18.25
2019-03-06T16:43:22.076Z,19.35
2019-03-06T16:45:52.677Z,18.42
2019-03-06T16:48:23.227Z,18.85
2019-03-06T16:50:53.559Z,19.55
2019-03-06T16:53:24.225Z,22.25
2019-03-06T16:55:54.493Z,21.60
2019-03-06T16:58:24.793Z,23.45
2019-03-06T17:00:55.456Z,23.75
2019-03-06T17:03:26.245Z,25.77
2019-03-06T17:05:56.849Z,25.20
2019-03-06T17:08:27.433Z,23.98
2019-03-06T17:10:58.145Z,26.02
2019-03-06T17:13:28.837Z,27.35
2019-03-06T17:15:59.985Z,26.33
2019-03-06T17:18:30.807Z,26.07
2019-03-06T17:21:01.811Z,25.23
2019-03-06T17:23:32.541Z,26.60
2019-03-06T17:26:03.223Z,25.88
2019-03-06T17:28:34.396Z,27.93
2019-03-06T17:31:05.316Z,28.62
2019-03-06T17:33:41.426Z,26.68
2019-03-06T17:36:13.755Z,26.52
2019-03-06T17:41:14.357Z,27.30
2019-03-06T17:43:45.142Z,27.40
2019-03-06T17:46:15.833Z,28.10
2019-03-06T17:48:46.646Z,29.18
2019-03-06T17:51:17.426Z,28.77
2019-03-06T17:53:48.151Z,34.75
2019-03-06T17:56:18.831Z,35.88
2019-03-06T17:58:49.551Z,36.40
2019-03-06T18:01:20.383Z,34.45
2019-03-06T18:03:52.518Z,33.18
2019-03-06T18:06:23.894Z,31.45
2019-03-06T18:08:54.892Z,29.80
2019-03-06T18:11:25.513Z,29.23
2019-03-06T18:13:56.216Z,29.35
2019-03-06T18:16:26.868Z,31.52
2019-03-06T18:18:58.062Z,32.00
2019-03-06T18:21:28.832Z,32.05
2019-03-06T18:23:59.573Z,31.15
2019-03-06T18:26:30.450Z,33.83
2019-03-06T18:29:01.141Z,32.33
2019-03-06T18:31:31.873Z,35.10
2019-03-06T18:34:02.699Z,35.70
2019-03-06T18:36:33.392Z,35.75
2019-03-06T18:39:05.594Z,34.33
2019-03-06T18:41:37.806Z,35.28
2019-03-06T18:44:10.049Z,35.85
2019-03-06T18:46:40.677Z,34.65
2019-03-06T18:49:11.465Z,35.05
2019-03-06T18:51:42.304Z,36.20
2019-03-06T18:54:12.976Z,33.42
2019-03-06T18:56:45.226Z,33.10
2019-03-06T18:59:15.960Z,32.53
2019-03-06T19:01:46.836Z,32.60
2019-03-06T19:04:17.766Z,31.60
2019-03-06T19:06:48.468Z,29.20
2019-03-06T19:09:19.835Z,28.30
2019-03-06T19:11:51.223Z,29.32
2019-03-06T19:14:21.884Z,27.93
2019-03-06T19:16:52.516Z,28.35
2019-03-06T19:19:23.142Z,29.98
2019-03-06T19:21:53.802Z,27.90
2019-03-06T19:24:24.829Z,28.73
2019-03-06T19:26:55.546Z,29.63
2019-03-06T19:29:30.986Z,27.70
2019-03-06T19:32:02.016Z,30.25
2019-03-06T19:34:34.618Z,31.23
2019-03-06T19:37:06.862Z,30.02
2019-03-06T19:39:37.754Z,30.32
2019-03-06T19:44:50.266Z,30.80
2019-03-06T19:47:24.437Z,32.28
2019-03-06T19:49:59.352Z,31.33
2019-03-06T19:52:30.074Z,31.82
2019-03-06T19:55:03.333Z,33.18
2019-03-06T19:57:49.399Z,32.78
2019-03-06T20:00:20.535Z,32.88
2019-03-06T20:02:51.458Z,33.90
2019-03-06T20:05:22.196Z,35.00
2019-03-06T20:07:52.886Z,35.80
2019-03-06T20:10:23.809Z,36.95
2019-03-06T20:12:54.597Z,37.00
2019-03-06T20:15:25.219Z,36.05
2019-03-06T20:17:56.051Z,38.42
2019-03-06T20:20:29.427Z,35.00
2019-03-06T20:23:00.565Z,37.08
2019-03-06T20:25:31.198Z,34.65
2019-03-06T20:28:01.943Z,33.90
2019-03-06T20:30:32.680Z,33.45
2019-03-06T20:33:03.400Z,32.40
2019-03-06T20:35:34.117Z,36.38
2019-03-06T20:38:04.781Z,35.88
2019-03-06T20:40:35.555Z,36.03
2019-03-06T20:43:06.299Z,36.77
2019-03-06T20:45:36.916Z,38.55
2019-03-06T20:48:07.637Z,33.48
2019-03-06T20:50:38.723Z,32.85
2019-03-06T20:53:09.391Z,32.83
2019-03-06T20:55:40.011Z,31.37
2019-03-06T20:58:10.739Z,32.35
2019-03-06T21:00:41.386Z,33.65
2019-03-06T21:03:12.084Z,32.67
2019-03-06T21:05:42.658Z,32.17
2019-03-06T21:08:13.747Z,33.53
2019-03-06T21:10:44.266Z,33.25
2019-03-06T21:13:16.537Z,33.05
2019-03-06T21:15:48.545Z,32.20
2019-03-06T21:18:19.442Z,35.10
2019-03-06T21:20:50.086Z,30.92
2019-03-06T21:23:20.888Z,30.52
2019-03-06T21:25:51.524Z,30.70
2019-03-06T21:28:23.380Z,34.67
2019-03-06T21:30:53.907Z,34.25
2019-03-06T21:33:24.719Z,35.95
2019-03-06T21:35:55.943Z,37.77
2019-03-06T21:38:26.632Z,36.53
2019-03-06T21:40:57.409Z,37.58
2019-03-06T21:43:28.185Z,38.95
2019-03-06T21:45:58.806Z,36.08
2019-03-06T21:48:29.463Z,38.50
2019-03-06T21:50:59.927Z,37.35
2019-03-06T21:53:30.244Z,38.85
2019-03-06T21:56:00.507Z,36.90
2019-03-06T21:58:30.771Z,38.63
2019-03-06T22:01:00.986Z,37.25
2019-03-06T22:03:32.851Z,35.95
2019-03-06T22:06:03.131Z,38.20
2019-03-06T22:08:34.621Z,39.03
2019-03-06T22:11:04.975Z,38.28
2019-03-06T22:13:35.279Z,37.63
2019-03-06T22:16:05.508Z,37.53
2019-03-06T22:18:35.727Z,35.60
2019-03-06T22:21:05.982Z,37.20
2019-03-06T22:23:36.181Z,35.65
2019-03-06T22:26:06.467Z,36.30
2019-03-06T22:28:36.776Z,35.63
2019-03-06T22:31:07.053Z,34.85
2019-03-06T22:33:37.401Z,34.55
2019-03-06T22:36:07.791Z,33.55
2019-03-06T22:38:39.553Z,36.55
2019-03-06T22:41:09.845Z,37.03
2019-03-06T22:43:40.069Z,37.03
2019-03-06T22:46:10.298Z,35.63
2019-03-06T22:48:40.529Z,35.83
2019-03-06T22:51:10.803Z,34.63
2019-03-06T22:53:41.033Z,35.15
2019-03-06T22:56:11.311Z,35.92
2019-03-06T22:58:41.585Z,34.90
2019-03-06T23:01:19.485Z,34.88
2019-03-06T23:03:51.271Z,33.67
2019-03-06T23:06:21.632Z,34.50
2019-03-06T23:08:52.177Z,35.10
2019-03-06T23:11:22.399Z,34.18
2019-03-06T23:13:52.638Z,34.83
2019-03-06T23:16:22.858Z,35.40
2019-03-06T23:18:53.087Z,35.48
2019-03-06T23:21:23.922Z,36.73
2019-03-06T23:23:54.138Z,37.33
2019-03-06T23:26:24.351Z,37.10
2019-03-06T23:28:55.884Z,36.85
2019-03-06T23:31:26.118Z,36.75
2019-03-06T23:33:56.851Z,36.98
2019-03-06T23:36:27.075Z,37.75
2019-03-06T23:38:57.295Z,36.77
2019-03-06T23:41:28.819Z,37.20
2019-03-06T23:43:59.039Z,34.45
2019-03-06T23:46:29.271Z,34.27
2019-03-06T23:48:59.497Z,35.35
2019-03-06T23:51:30.933Z,34.70
2019-03-06T23:54:01.155Z,37.90
2019-03-06T23:56:31.385Z,34.30
2019-03-06T23:59:01.599Z,33.38
